sensor_id;sensor_type;location;lat;lon;timestamp;temperature;humidity
1347;DHT22;667;48.796;9.480;2022-08-19T00:01:23;23.90;71.80
1347;DHT22;667;48.796;9.480;2022-08-19T00:03:50;23.90;72.40
1347;DHT22;667;48.796;9.480;2022-08-19T00:06:16;23.90;72.60
1347;DHT22;667;48.796;9.480;2022-08-19T00:08:43;23.80;72.70
1347;DHT22;667;48.796;9.480;2022-08-19T00:11:09;23.80;72.60
1347;DHT22;667;48.796;9.480;2022-08-19T00:13:34;23.80;72.60
1347;DHT22;667;48.796;9.480;2022-08-19T00:16:01;23.80;71.90
1347;DHT22;667;48.796;9.480;2022-08-19T00:18:27;23.70;71.10
1347;DHT22;667;48.796;9.480;2022-08-19T00:20:52;23.70;70.90
1347;DHT22;667;48.796;9.480;2022-08-19T00:23:18;23.70;71.60
1347;DHT22;667;48.796;9.480;2022-08-19T00:25:44;23.70;71.60
1347;DHT22;667;48.796;9.480;2022-08-19T00:28:10;23.60;70.50
1347;DHT22;667;48.796;9.480;2022-08-19T00:30:36;23.60;69.90
1347;DHT22;667;48.796;9.480;2022-08-19T00:33:02;23.60;69.90
1347;DHT22;667;48.796;9.480;2022-08-19T00:35:28;23.60;70.40
1347;DHT22;667;48.796;9.480;2022-08-19T00:37:54;23.50;70.70
1347;DHT22;667;48.796;9.480;2022-08-19T00:40:20;23.60;71.10
1347;DHT22;667;48.796;9.480;2022-08-19T00:42:46;23.60;70.60
1347;DHT22;667;48.796;9.480;2022-08-19T00:45:16;23.50;70.10
1347;DHT22;667;48.796;9.480;2022-08-19T00:47:43;23.50;70.00
1347;DHT22;667;48.796;9.480;2022-08-19T00:50:10;23.50;69.90
1347;DHT22;667;48.796;9.480;2022-08-19T00:52:39;23.50;69.70
1347;DHT22;667;48.796;9.480;2022-08-19T00:55:08;23.50;69.40
1347;DHT22;667;48.796;9.480;2022-08-19T00:57:40;23.50;69.20
1347;DHT22;667;48.796;9.480;2022-08-19T01:00:13;23.50;69.20
1347;DHT22;667;48.796;9.480;2022-08-19T01:02:41;23.50;68.70
1347;DHT22;667;48.796;9.480;2022-08-19T01:05:27;23.50;68.70
1347;DHT22;667;48.796;9.480;2022-08-19T01:07:54;23.50;68.50
1347;DHT22;667;48.796;9.480;2022-08-19T01:10:25;23.50;68.10
1347;DHT22;667;48.796;9.480;2022-08-19T01:12:52;23.50;68.10
1347;DHT22;667;48.796;9.480;2022-08-19T01:15:21;23.50;68.10
1347;DHT22;667;48.796;9.480;2022-08-19T01:17:48;23.50;68.00
1347;DHT22;667;48.796;9.480;2022-08-19T01:20:19;23.50;67.70
1347;DHT22;667;48.796;9.480;2022-08-19T01:22:55;23.50;67.80
1347;DHT22;667;48.796;9.480;2022-08-19T01:25:48;23.40;67.50
1347;DHT22;667;48.796;9.480;2022-08-19T01:28:26;23.50;68.10
1347;DHT22;667;48.796;9.480;2022-08-19T01:30:53;23.50;68.30
1347;DHT22;667;48.796;9.480;2022-08-19T01:33:20;23.50;68.70
1347;DHT22;667;48.796;9.480;2022-08-19T01:35:45;23.50;69.00
1347;DHT22;667;48.796;9.480;2022-08-19T01:38:26;23.50;69.00
1347;DHT22;667;48.796;9.480;2022-08-19T01:40:52;23.50;69.00
1347;DHT22;667;48.796;9.480;2022-08-19T01:43:18;23.50;69.00
1347;DHT22;667;48.796;9.480;2022-08-19T01:45:44;23.50;68.30
1347;DHT22;667;48.796;9.480;2022-08-19T01:48:11;23.50;67.80
1347;DHT22;667;48.796;9.480;2022-08-19T01:50:37;23.50;67.80
1347;DHT22;667;48.796;9.480;2022-08-19T01:53:06;23.50;67.90
1347;DHT22;667;48.796;9.480;2022-08-19T01:55:34;23.50;68.70
1347;DHT22;667;48.796;9.480;2022-08-19T01:58:03;23.50;67.90
1347;DHT22;667;48.796;9.480;2022-08-19T02:00:31;23.40;67.50
1347;DHT22;667;48.796;9.480;2022-08-19T02:02:57;23.40;67.90
1347;DHT22;667;48.796;9.480;2022-08-19T02:05:23;23.40;68.40
1347;DHT22;667;48.796;9.480;2022-08-19T02:07:49;23.40;68.30
1347;DHT22;667;48.796;9.480;2022-08-19T02:10:20;23.40;68.00
1347;DHT22;667;48.796;9.480;2022-08-19T02:12:47;23.40;68.60
1347;DHT22;667;48.796;9.480;2022-08-19T02:15:13;23.40;68.50
1347;DHT22;667;48.796;9.480;2022-08-19T02:17:39;23.40;68.50
1347;DHT22;667;48.796;9.480;2022-08-19T02:20:06;23.40;68.30
1347;DHT22;667;48.796;9.480;2022-08-19T02:22:32;23.40;68.50
1347;DHT22;667;48.796;9.480;2022-08-19T02:24:58;23.40;68.50
1347;DHT22;667;48.796;9.480;2022-08-19T02:27:23;23.40;68.40
1347;DHT22;667;48.796;9.480;2022-08-19T02:29:50;23.40;68.80
1347;DHT22;667;48.796;9.480;2022-08-19T02:32:17;23.40;68.80
1347;DHT22;667;48.796;9.480;2022-08-19T02:34:45;23.40;68.90
1347;DHT22;667;48.796;9.480;2022-08-19T02:37:11;23.40;69.20
1347;DHT22;667;48.796;9.480;2022-08-19T02:39:56;23.40;69.40
1347;DHT22;667;48.796;9.480;2022-08-19T02:42:22;23.40;69.80
1347;DHT22;667;48.796;9.480;2022-08-19T02:44:48;23.40;70.00
1347;DHT22;667;48.796;9.480;2022-08-19T02:47:14;23.40;70.50
1347;DHT22;667;48.796;9.480;2022-08-19T02:49:40;23.30;70.80
1347;DHT22;667;48.796;9.480;2022-08-19T02:52:06;23.30;71.00
1347;DHT22;667;48.796;9.480;2022-08-19T02:54:32;23.30;71.50
1347;DHT22;667;48.796;9.480;2022-08-19T02:56:57;23.30;71.90
1347;DHT22;667;48.796;9.480;2022-08-19T02:59:24;23.30;72.20
1347;DHT22;667;48.796;9.480;2022-08-19T03:01:51;23.20;72.50
1347;DHT22;667;48.796;9.480;2022-08-19T03:04:16;23.20;72.60
1347;DHT22;667;48.796;9.480;2022-08-19T03:06:45;23.20;72.70
1347;DHT22;667;48.796;9.480;2022-08-19T03:09:11;23.20;72.80
1347;DHT22;667;48.796;9.480;2022-08-19T03:11:37;23.10;72.90
1347;DHT22;667;48.796;9.480;2022-08-19T03:14:05;23.10;73.90
1347;DHT22;667;48.796;9.480;2022-08-19T03:16:35;23.00;73.30
1347;DHT22;667;48.796;9.480;2022-08-19T03:19:04;23.00;73.50
1347;DHT22;667;48.796;9.480;2022-08-19T03:21:32;23.00;73.80
1347;DHT22;667;48.796;9.480;2022-08-19T03:24:03;22.90;73.80
1347;DHT22;667;48.796;9.480;2022-08-19T03:26:29;22.90;74.10
1347;DHT22;667;48.796;9.480;2022-08-19T03:28:55;22.80;74.20
1347;DHT22;667;48.796;9.480;2022-08-19T03:31:22;22.80;74.20
1347;DHT22;667;48.796;9.480;2022-08-19T03:33:49;22.80;74.30
1347;DHT22;667;48.796;9.480;2022-08-19T03:36:21;22.70;74.00
1347;DHT22;667;48.796;9.480;2022-08-19T03:38:52;22.70;74.40
1347;DHT22;667;48.796;9.480;2022-08-19T03:41:22;22.70;74.80
1347;DHT22;667;48.796;9.480;2022-08-19T03:43:48;22.70;75.00
1347;DHT22;667;48.796;9.480;2022-08-19T03:46:17;22.70;75.30
1347;DHT22;667;48.796;9.480;2022-08-19T03:48:46;22.70;75.40
1347;DHT22;667;48.796;9.480;2022-08-19T03:51:27;22.70;75.30
1347;DHT22;667;48.796;9.480;2022-08-19T03:53:54;22.70;75.30
1347;DHT22;667;48.796;9.480;2022-08-19T03:56:20;22.70;75.20
1347;DHT22;667;48.796;9.480;2022-08-19T03:58:46;22.70;75.40
1347;DHT22;667;48.796;9.480;2022-08-19T04:01:14;22.70;75.40
1347;DHT22;667;48.796;9.480;2022-08-19T04:03:40;22.70;75.30
1347;DHT22;667;48.796;9.480;2022-08-19T04:06:30;22.70;75.10
1347;DHT22;667;48.796;9.480;2022-08-19T04:08:58;22.60;74.70
1347;DHT22;667;48.796;9.480;2022-08-19T04:11:26;22.60;74.60
1347;DHT22;667;48.796;9.480;2022-08-19T04:13:53;22.60;74.50
1347;DHT22;667;48.796;9.480;2022-08-19T04:16:20;22.60;74.40
1347;DHT22;667;48.796;9.480;2022-08-19T04:18:47;22.60;74.50
1347;DHT22;667;48.796;9.480;2022-08-19T04:21:22;22.60;74.60
1347;DHT22;667;48.796;9.480;2022-08-19T04:23:49;22.60;74.70
1347;DHT22;667;48.796;9.480;2022-08-19T04:26:22;22.60;74.70
1347;DHT22;667;48.796;9.480;2022-08-19T04:28:48;22.60;74.80
1347;DHT22;667;48.796;9.480;2022-08-19T04:31:25;22.60;74.90
1347;DHT22;667;48.796;9.480;2022-08-19T04:33:55;22.60;75.00
1347;DHT22;667;48.796;9.480;2022-08-19T04:36:27;22.60;75.00
1347;DHT22;667;48.796;9.480;2022-08-19T04:38:55;22.60;75.00
1347;DHT22;667;48.796;9.480;2022-08-19T04:41:21;22.60;75.00
1347;DHT22;667;48.796;9.480;2022-08-19T04:44:06;22.60;75.20
1347;DHT22;667;48.796;9.480;2022-08-19T04:46:32;22.60;75.40
1347;DHT22;667;48.796;9.480;2022-08-19T04:49:02;22.60;76.10
1347;DHT22;667;48.796;9.480;2022-08-19T04:51:31;22.60;75.40
1347;DHT22;667;48.796;9.480;2022-08-19T04:53:57;22.70;75.70
1347;DHT22;667;48.796;9.480;2022-08-19T04:56:23;22.70;75.80
1347;DHT22;667;48.796;9.480;2022-08-19T04:58:52;22.70;75.70
1347;DHT22;667;48.796;9.480;2022-08-19T05:01:25;22.70;75.70
1347;DHT22;667;48.796;9.480;2022-08-19T05:03:51;22.70;75.60
1347;DHT22;667;48.796;9.480;2022-08-19T05:06:20;22.60;75.20
1347;DHT22;667;48.796;9.480;2022-08-19T05:08:46;22.60;75.00
1347;DHT22;667;48.796;9.480;2022-08-19T05:11:21;22.60;74.60
1347;DHT22;667;48.796;9.480;2022-08-19T05:13:47;22.60;74.10
1347;DHT22;667;48.796;9.480;2022-08-19T05:16:15;22.60;74.10
1347;DHT22;667;48.796;9.480;2022-08-19T05:18:41;22.60;73.90
1347;DHT22;667;48.796;9.480;2022-08-19T05:21:26;22.60;73.70
1347;DHT22;667;48.796;9.480;2022-08-19T05:24:11;22.60;73.90
1347;DHT22;667;48.796;9.480;2022-08-19T05:26:42;22.60;73.70
1347;DHT22;667;48.796;9.480;2022-08-19T05:29:08;22.60;73.60
1347;DHT22;667;48.796;9.480;2022-08-19T05:31:35;22.60;73.70
1347;DHT22;667;48.796;9.480;2022-08-19T05:34:02;22.60;73.70
1347;DHT22;667;48.796;9.480;2022-08-19T05:36:35;22.60;73.50
1347;DHT22;667;48.796;9.480;2022-08-19T05:39:02;22.50;73.20
1347;DHT22;667;48.796;9.480;2022-08-19T05:41:28;22.50;73.10
1347;DHT22;667;48.796;9.480;2022-08-19T05:44:00;22.50;73.30
1347;DHT22;667;48.796;9.480;2022-08-19T05:46:26;22.60;73.30
1347;DHT22;667;48.796;9.480;2022-08-19T05:48:51;22.50;73.10
1347;DHT22;667;48.796;9.480;2022-08-19T05:51:17;22.50;73.20
1347;DHT22;667;48.796;9.480;2022-08-19T05:53:43;22.60;73.30
1347;DHT22;667;48.796;9.480;2022-08-19T05:56:13;22.60;73.30
1347;DHT22;667;48.796;9.480;2022-08-19T05:58:41;22.60;73.20
1347;DHT22;667;48.796;9.480;2022-08-19T06:01:16;22.60;73.10
1347;DHT22;667;48.796;9.480;2022-08-19T06:03:43;22.60;73.30
1347;DHT22;667;48.796;9.480;2022-08-19T06:06:13;22.60;73.10
1347;DHT22;667;48.796;9.480;2022-08-19T06:08:39;22.60;73.20
1347;DHT22;667;48.796;9.480;2022-08-19T06:13:46;22.60;73.40
1347;DHT22;667;48.796;9.480;2022-08-19T06:16:17;22.60;73.60
1347;DHT22;667;48.796;9.480;2022-08-19T06:18:48;22.70;74.20
1347;DHT22;667;48.796;9.480;2022-08-19T06:21:15;22.70;74.60
1347;DHT22;667;48.796;9.480;2022-08-19T06:23:41;22.70;74.90
1347;DHT22;667;48.796;9.480;2022-08-19T06:26:11;22.60;75.50
1347;DHT22;667;48.796;9.480;2022-08-19T06:28:37;22.70;76.50
1347;DHT22;667;48.796;9.480;2022-08-19T06:31:08;22.70;77.00
1347;DHT22;667;48.796;9.480;2022-08-19T06:33:33;22.70;77.20
1347;DHT22;667;48.796;9.480;2022-08-19T06:35:59;22.70;77.40
1347;DHT22;667;48.796;9.480;2022-08-19T06:38:25;22.70;77.80
1347;DHT22;667;48.796;9.480;2022-08-19T06:40:50;22.70;78.20
1347;DHT22;667;48.796;9.480;2022-08-19T06:43:16;22.70;78.40
1347;DHT22;667;48.796;9.480;2022-08-19T06:45:41;22.70;78.70
1347;DHT22;667;48.796;9.480;2022-08-19T06:48:07;22.70;78.80
1347;DHT22;667;48.796;9.480;2022-08-19T06:50:33;22.60;78.90
1347;DHT22;667;48.796;9.480;2022-08-19T06:52:58;22.60;78.90
1347;DHT22;667;48.796;9.480;2022-08-19T06:55:24;22.60;79.10
1347;DHT22;667;48.796;9.480;2022-08-19T06:57:50;22.60;79.20
1347;DHT22;667;48.796;9.480;2022-08-19T07:00:18;22.60;79.20
1347;DHT22;667;48.796;9.480;2022-08-19T07:02:44;22.60;79.70
1347;DHT22;667;48.796;9.480;2022-08-19T07:05:10;22.60;80.00
1347;DHT22;667;48.796;9.480;2022-08-19T07:07:36;22.60;79.90
1347;DHT22;667;48.796;9.480;2022-08-19T07:10:02;22.60;79.90
1347;DHT22;667;48.796;9.480;2022-08-19T07:12:30;22.60;80.00
1347;DHT22;667;48.796;9.480;2022-08-19T07:14:59;22.60;80.30
1347;DHT22;667;48.796;9.480;2022-08-19T07:17:26;22.60;80.30
1347;DHT22;667;48.796;9.480;2022-08-19T07:19:52;22.60;80.60
1347;DHT22;667;48.796;9.480;2022-08-19T07:22:17;22.60;80.90
1347;DHT22;667;48.796;9.480;2022-08-19T07:24:45;22.60;80.70
1347;DHT22;667;48.796;9.480;2022-08-19T07:27:13;22.60;80.60
1347;DHT22;667;48.796;9.480;2022-08-19T07:29:39;22.60;80.70
1347;DHT22;667;48.796;9.480;2022-08-19T07:32:05;22.60;80.70
1347;DHT22;667;48.796;9.480;2022-08-19T07:34:31;22.60;80.60
1347;DHT22;667;48.796;9.480;2022-08-19T07:36:59;22.60;80.70
1347;DHT22;667;48.796;9.480;2022-08-19T07:39:28;22.60;80.70
1347;DHT22;667;48.796;9.480;2022-08-19T07:41:54;22.60;80.90
1347;DHT22;667;48.796;9.480;2022-08-19T07:44:21;22.60;81.10
1347;DHT22;667;48.796;9.480;2022-08-19T07:46:51;22.50;80.90
1347;DHT22;667;48.796;9.480;2022-08-19T07:49:17;22.50;80.80
1347;DHT22;667;48.796;9.480;2022-08-19T07:52:06;22.50;80.60
1347;DHT22;667;48.796;9.480;2022-08-19T07:54:33;22.50;80.50
1347;DHT22;667;48.796;9.480;2022-08-19T07:57:01;22.50;80.50
1347;DHT22;667;48.796;9.480;2022-08-19T07:59:27;22.40;80.40
1347;DHT22;667;48.796;9.480;2022-08-19T08:01:55;22.40;80.40
1347;DHT22;667;48.796;9.480;2022-08-19T08:04:21;22.40;80.70
1347;DHT22;667;48.796;9.480;2022-08-19T08:07:06;22.40;81.00
1347;DHT22;667;48.796;9.480;2022-08-19T08:09:52;22.40;81.40
1347;DHT22;667;48.796;9.480;2022-08-19T08:12:25;22.40;81.30
1347;DHT22;667;48.796;9.480;2022-08-19T08:14:55;22.40;81.20
1347;DHT22;667;48.796;9.480;2022-08-19T08:17:24;22.40;81.10
1347;DHT22;667;48.796;9.480;2022-08-19T08:19:50;22.40;81.00
1347;DHT22;667;48.796;9.480;2022-08-19T08:22:19;22.40;81.10
1347;DHT22;667;48.796;9.480;2022-08-19T08:25:07;22.40;81.00
1347;DHT22;667;48.796;9.480;2022-08-19T08:27:41;22.40;81.20
1347;DHT22;667;48.796;9.480;2022-08-19T08:30:12;22.50;81.70
1347;DHT22;667;48.796;9.480;2022-08-19T08:32:39;22.50;81.80
1347;DHT22;667;48.796;9.480;2022-08-19T08:35:11;22.50;82.00
1347;DHT22;667;48.796;9.480;2022-08-19T08:37:37;22.60;82.50
1347;DHT22;667;48.796;9.480;2022-08-19T08:40:15;22.60;82.30
1347;DHT22;667;48.796;9.480;2022-08-19T08:45:27;22.60;82.60
1347;DHT22;667;48.796;9.480;2022-08-19T08:47:56;22.70;82.40
1347;DHT22;667;48.796;9.480;2022-08-19T08:50:33;22.70;82.10
1347;DHT22;667;48.796;9.480;2022-08-19T08:53:01;22.70;82.10
1347;DHT22;667;48.796;9.480;2022-08-19T08:55:29;22.70;82.30
1347;DHT22;667;48.796;9.480;2022-08-19T08:58:05;22.70;82.40
1347;DHT22;667;48.796;9.480;2022-08-19T09:00:38;22.80;82.30
1347;DHT22;667;48.796;9.480;2022-08-19T09:03:11;22.80;82.30
1347;DHT22;667;48.796;9.480;2022-08-19T09:06:04;22.80;81.90
1347;DHT22;667;48.796;9.480;2022-08-19T09:11:31;22.80;80.80
1347;DHT22;667;48.796;9.480;2022-08-19T09:16:40;22.80;81.20
1347;DHT22;667;48.796;9.480;2022-08-19T09:19:07;22.70;80.40
1347;DHT22;667;48.796;9.480;2022-08-19T09:21:33;22.70;80.60
1347;DHT22;667;48.796;9.480;2022-08-19T09:24:01;22.80;80.90
1347;DHT22;667;48.796;9.480;2022-08-19T09:26:27;22.80;81.20
1347;DHT22;667;48.796;9.480;2022-08-19T09:28:53;22.80;81.80
1347;DHT22;667;48.796;9.480;2022-08-19T09:31:26;22.80;81.20
1347;DHT22;667;48.796;9.480;2022-08-19T09:33:53;22.80;81.30
1347;DHT22;667;48.796;9.480;2022-08-19T09:36:23;22.70;81.30
1347;DHT22;667;48.796;9.480;2022-08-19T09:38:50;22.70;81.50
1347;DHT22;667;48.796;9.480;2022-08-19T09:41:19;22.70;81.60
1347;DHT22;667;48.796;9.480;2022-08-19T09:43:48;22.70;81.50
1347;DHT22;667;48.796;9.480;2022-08-19T09:46:14;22.70;81.50
1347;DHT22;667;48.796;9.480;2022-08-19T09:48:42;22.70;81.80
1347;DHT22;667;48.796;9.480;2022-08-19T09:51:12;22.70;81.90
1347;DHT22;667;48.796;9.480;2022-08-19T09:53:42;22.70;81.60
1347;DHT22;667;48.796;9.480;2022-08-19T09:56:08;22.70;81.70
1347;DHT22;667;48.796;9.480;2022-08-19T09:58:35;22.70;82.00
1347;DHT22;667;48.796;9.480;2022-08-19T10:01:02;22.70;82.30
1347;DHT22;667;48.796;9.480;2022-08-19T10:03:29;22.70;82.40
1347;DHT22;667;48.796;9.480;2022-08-19T10:05:57;22.70;82.30
1347;DHT22;667;48.796;9.480;2022-08-19T10:08:26;22.70;82.20
1347;DHT22;667;48.796;9.480;2022-08-19T10:10:53;22.70;82.30
1347;DHT22;667;48.796;9.480;2022-08-19T10:13:21;22.70;82.30
1347;DHT22;667;48.796;9.480;2022-08-19T10:15:50;22.70;83.10
1347;DHT22;667;48.796;9.480;2022-08-19T10:18:18;22.80;82.40
1347;DHT22;667;48.796;9.480;2022-08-19T10:20:45;22.70;82.40
1347;DHT22;667;48.796;9.480;2022-08-19T10:23:12;22.80;82.70
1347;DHT22;667;48.796;9.480;2022-08-19T10:25:37;22.80;82.80
1347;DHT22;667;48.796;9.480;2022-08-19T10:28:03;22.80;83.10
1347;DHT22;667;48.796;9.480;2022-08-19T10:30:31;22.90;83.30
1347;DHT22;667;48.796;9.480;2022-08-19T10:32:56;22.90;83.40
1347;DHT22;667;48.796;9.480;2022-08-19T10:35:22;22.90;83.40
1347;DHT22;667;48.796;9.480;2022-08-19T10:37:48;22.90;83.20
1347;DHT22;667;48.796;9.480;2022-08-19T10:40:13;23.00;83.40
1347;DHT22;667;48.796;9.480;2022-08-19T10:42:39;23.00;83.40
1347;DHT22;667;48.796;9.480;2022-08-19T10:45:05;23.00;82.90
1347;DHT22;667;48.796;9.480;2022-08-19T10:47:33;23.00;82.80
1347;DHT22;667;48.796;9.480;2022-08-19T10:49:59;23.00;82.80
1347;DHT22;667;48.796;9.480;2022-08-19T10:52:45;23.00;83.00
1347;DHT22;667;48.796;9.480;2022-08-19T10:55:11;23.10;83.20
1347;DHT22;667;48.796;9.480;2022-08-19T10:57:55;23.10;83.10
1347;DHT22;667;48.796;9.480;2022-08-19T11:00:23;23.00;83.00
1347;DHT22;667;48.796;9.480;2022-08-19T11:02:49;23.00;83.20
1347;DHT22;667;48.796;9.480;2022-08-19T11:05:15;23.10;83.50
1347;DHT22;667;48.796;9.480;2022-08-19T11:07:42;23.10;83.50
1347;DHT22;667;48.796;9.480;2022-08-19T11:10:10;23.10;83.50
1347;DHT22;667;48.796;9.480;2022-08-19T11:12:37;23.10;83.20
1347;DHT22;667;48.796;9.480;2022-08-19T11:15:07;23.10;82.90
1347;DHT22;667;48.796;9.480;2022-08-19T11:17:40;23.10;82.90
1347;DHT22;667;48.796;9.480;2022-08-19T11:20:12;23.10;84.00
1347;DHT22;667;48.796;9.480;2022-08-19T11:22:38;23.10;83.50
1347;DHT22;667;48.796;9.480;2022-08-19T11:25:04;23.10;83.70
1347;DHT22;667;48.796;9.480;2022-08-19T11:27:29;23.10;83.80
1347;DHT22;667;48.796;9.480;2022-08-19T11:29:55;23.10;83.90
1347;DHT22;667;48.796;9.480;2022-08-19T11:32:21;23.10;84.20
1347;DHT22;667;48.796;9.480;2022-08-19T11:34:47;23.10;84.40
1347;DHT22;667;48.796;9.480;2022-08-19T11:37:12;23.10;84.30
1347;DHT22;667;48.796;9.480;2022-08-19T11:39:38;23.10;84.10
1347;DHT22;667;48.796;9.480;2022-08-19T11:42:05;23.10;84.20
1347;DHT22;667;48.796;9.480;2022-08-19T11:44:51;23.10;84.30
1347;DHT22;667;48.796;9.480;2022-08-19T11:47:17;23.10;84.30
1347;DHT22;667;48.796;9.480;2022-08-19T11:49:43;23.10;84.40
1347;DHT22;667;48.796;9.480;2022-08-19T11:52:08;23.10;84.70
1347;DHT22;667;48.796;9.480;2022-08-19T11:54:34;23.10;85.00
1347;DHT22;667;48.796;9.480;2022-08-19T11:57:02;23.10;85.40
1347;DHT22;667;48.796;9.480;2022-08-19T11:59:28;23.10;85.90
1347;DHT22;667;48.796;9.480;2022-08-19T12:01:54;23.10;86.40
1347;DHT22;667;48.796;9.480;2022-08-19T12:04:22;23.10;86.80
1347;DHT22;667;48.796;9.480;2022-08-19T12:06:48;23.10;87.00
1347;DHT22;667;48.796;9.480;2022-08-19T12:09:15;23.10;87.10
1347;DHT22;667;48.796;9.480;2022-08-19T12:11:43;23.00;87.10
1347;DHT22;667;48.796;9.480;2022-08-19T12:14:11;23.00;87.40
1347;DHT22;667;48.796;9.480;2022-08-19T12:16:37;22.90;87.70
1347;DHT22;667;48.796;9.480;2022-08-19T12:19:04;22.90;88.20
1347;DHT22;667;48.796;9.480;2022-08-19T12:21:31;22.90;88.50
1347;DHT22;667;48.796;9.480;2022-08-19T12:23:58;22.90;88.80
1347;DHT22;667;48.796;9.480;2022-08-19T12:26:25;22.90;89.10
1347;DHT22;667;48.796;9.480;2022-08-19T12:28:52;22.90;89.30
1347;DHT22;667;48.796;9.480;2022-08-19T12:31:18;22.90;89.50
1347;DHT22;667;48.796;9.480;2022-08-19T12:33:45;22.90;89.60
1347;DHT22;667;48.796;9.480;2022-08-19T12:36:14;22.90;89.70
1347;DHT22;667;48.796;9.480;2022-08-19T12:38:40;22.90;90.00
1347;DHT22;667;48.796;9.480;2022-08-19T12:41:08;22.90;90.10
1347;DHT22;667;48.796;9.480;2022-08-19T12:43:34;23.00;90.20
1347;DHT22;667;48.796;9.480;2022-08-19T12:46:00;22.90;90.20
1347;DHT22;667;48.796;9.480;2022-08-19T12:48:26;22.90;90.40
1347;DHT22;667;48.796;9.480;2022-08-19T12:50:52;22.90;90.50
1347;DHT22;667;48.796;9.480;2022-08-19T12:53:18;22.90;90.60
1347;DHT22;667;48.796;9.480;2022-08-19T12:55:43;23.00;90.80
1347;DHT22;667;48.796;9.480;2022-08-19T12:58:09;22.90;90.70
1347;DHT22;667;48.796;9.480;2022-08-19T13:00:35;22.90;90.70
1347;DHT22;667;48.796;9.480;2022-08-19T13:03:01;23.00;90.80
1347;DHT22;667;48.796;9.480;2022-08-19T13:05:30;22.90;90.80
1347;DHT22;667;48.796;9.480;2022-08-19T13:07:57;22.90;90.90
1347;DHT22;667;48.796;9.480;2022-08-19T13:10:27;22.90;90.90
1347;DHT22;667;48.796;9.480;2022-08-19T13:12:54;22.90;90.80
1347;DHT22;667;48.796;9.480;2022-08-19T13:15:21;22.90;90.80
1347;DHT22;667;48.796;9.480;2022-08-19T13:17:49;22.90;90.90
1347;DHT22;667;48.796;9.480;2022-08-19T13:20:17;22.90;91.00
1347;DHT22;667;48.796;9.480;2022-08-19T13:22:45;22.90;91.10
1347;DHT22;667;48.796;9.480;2022-08-19T13:25:12;22.90;91.10
1347;DHT22;667;48.796;9.480;2022-08-19T13:27:38;22.90;91.10
1347;DHT22;667;48.796;9.480;2022-08-19T13:30:06;22.90;91.20
1347;DHT22;667;48.796;9.480;2022-08-19T13:32:50;22.90;91.20
1347;DHT22;667;48.796;9.480;2022-08-19T13:35:34;22.90;91.20
1347;DHT22;667;48.796;9.480;2022-08-19T13:38:00;22.80;91.00
1347;DHT22;667;48.796;9.480;2022-08-19T13:40:31;22.80;91.00
1347;DHT22;667;48.796;9.480;2022-08-19T13:42:59;22.80;91.40
1347;DHT22;667;48.796;9.480;2022-08-19T13:45:27;22.70;91.00
1347;DHT22;667;48.796;9.480;2022-08-19T13:47:55;22.70;91.00
1347;DHT22;667;48.796;9.480;2022-08-19T13:50:24;22.70;91.10
1347;DHT22;667;48.796;9.480;2022-08-19T13:52:54;22.60;91.00
1347;DHT22;667;48.796;9.480;2022-08-19T13:55:21;22.60;91.10
1347;DHT22;667;48.796;9.480;2022-08-19T13:57:53;22.60;91.30
1347;DHT22;667;48.796;9.480;2022-08-19T14:00:21;22.60;91.20
1347;DHT22;667;48.796;9.480;2022-08-19T14:02:50;22.60;91.10
1347;DHT22;667;48.796;9.480;2022-08-19T14:05:17;22.60;91.00
1347;DHT22;667;48.796;9.480;2022-08-19T14:07:43;22.50;90.90
1347;DHT22;667;48.796;9.480;2022-08-19T14:10:11;22.50;91.00
1347;DHT22;667;48.796;9.480;2022-08-19T14:12:37;22.50;91.00
1347;DHT22;667;48.796;9.480;2022-08-19T14:15:05;22.50;91.20
1347;DHT22;667;48.796;9.480;2022-08-19T14:17:31;22.60;91.30
1347;DHT22;667;48.796;9.480;2022-08-19T14:20:06;22.60;91.40
1347;DHT22;667;48.796;9.480;2022-08-19T14:22:39;22.60;91.30
1347;DHT22;667;48.796;9.480;2022-08-19T14:25:07;22.60;91.50
1347;DHT22;667;48.796;9.480;2022-08-19T14:27:34;22.60;91.50
1347;DHT22;667;48.796;9.480;2022-08-19T14:30:00;22.60;91.50
1347;DHT22;667;48.796;9.480;2022-08-19T14:32:27;22.70;91.30
1347;DHT22;667;48.796;9.480;2022-08-19T14:34:53;22.60;91.20
1347;DHT22;667;48.796;9.480;2022-08-19T14:37:19;22.70;91.20
1347;DHT22;667;48.796;9.480;2022-08-19T14:39:46;22.70;91.10
1347;DHT22;667;48.796;9.480;2022-08-19T14:42:12;22.70;91.00
1347;DHT22;667;48.796;9.480;2022-08-19T14:44:40;22.80;91.00
1347;DHT22;667;48.796;9.480;2022-08-19T14:47:06;22.80;91.00
1347;DHT22;667;48.796;9.480;2022-08-19T14:49:33;22.80;91.00
1347;DHT22;667;48.796;9.480;2022-08-19T14:51:59;22.80;91.10
1347;DHT22;667;48.796;9.480;2022-08-19T14:54:24;22.80;91.10
1347;DHT22;667;48.796;9.480;2022-08-19T14:56:50;22.80;90.90
1347;DHT22;667;48.796;9.480;2022-08-19T14:59:16;22.80;90.80
1347;DHT22;667;48.796;9.480;2022-08-19T15:01:42;22.80;90.50
1347;DHT22;667;48.796;9.480;2022-08-19T15:04:07;22.70;90.40
1347;DHT22;667;48.796;9.480;2022-08-19T15:06:33;22.70;90.40
1347;DHT22;667;48.796;9.480;2022-08-19T15:09:00;22.70;90.50
1347;DHT22;667;48.796;9.480;2022-08-19T15:11:27;22.60;90.50
1347;DHT22;667;48.796;9.480;2022-08-19T15:13:54;22.60;90.80
1347;DHT22;667;48.796;9.480;2022-08-19T15:16:20;22.50;90.80
1347;DHT22;667;48.796;9.480;2022-08-19T15:18:50;22.50;90.90
1347;DHT22;667;48.796;9.480;2022-08-19T15:21:16;22.40;90.80
1347;DHT22;667;48.796;9.480;2022-08-19T15:23:47;22.40;91.00
1347;DHT22;667;48.796;9.480;2022-08-19T15:26:14;22.40;91.30
1347;DHT22;667;48.796;9.480;2022-08-19T15:28:40;22.50;91.50
1347;DHT22;667;48.796;9.480;2022-08-19T15:31:05;22.50;91.60
1347;DHT22;667;48.796;9.480;2022-08-19T15:33:35;22.60;91.70
1347;DHT22;667;48.796;9.480;2022-08-19T15:36:11;22.60;91.70
1347;DHT22;667;48.796;9.480;2022-08-19T15:38:38;22.60;91.50
1347;DHT22;667;48.796;9.480;2022-08-19T15:41:04;22.60;91.40
1347;DHT22;667;48.796;9.480;2022-08-19T15:44:03;22.60;91.30
1347;DHT22;667;48.796;9.480;2022-08-19T15:46:32;22.60;91.20
1347;DHT22;667;48.796;9.480;2022-08-19T15:48:58;22.60;91.00
1347;DHT22;667;48.796;9.480;2022-08-19T15:51:25;22.60;90.90
1347;DHT22;667;48.796;9.480;2022-08-19T15:53:52;22.60;90.70
1347;DHT22;667;48.796;9.480;2022-08-19T15:56:17;22.50;90.60
1347;DHT22;667;48.796;9.480;2022-08-19T15:58:43;22.50;90.70
1347;DHT22;667;48.796;9.480;2022-08-19T16:01:28;22.50;90.80
1347;DHT22;667;48.796;9.480;2022-08-19T16:04:13;22.50;90.90
1347;DHT22;667;48.796;9.480;2022-08-19T16:06:59;22.50;91.00
1347;DHT22;667;48.796;9.480;2022-08-19T16:09:28;22.50;91.10
1347;DHT22;667;48.796;9.480;2022-08-19T16:11:56;22.50;91.30
1347;DHT22;667;48.796;9.480;2022-08-19T16:14:22;22.50;91.30
1347;DHT22;667;48.796;9.480;2022-08-19T16:16:47;22.50;91.30
1347;DHT22;667;48.796;9.480;2022-08-19T16:19:15;22.60;91.50
1347;DHT22;667;48.796;9.480;2022-08-19T16:21:43;22.60;91.50
1347;DHT22;667;48.796;9.480;2022-08-19T16:24:11;22.60;91.50
1347;DHT22;667;48.796;9.480;2022-08-19T16:26:38;22.60;91.50
1347;DHT22;667;48.796;9.480;2022-08-19T16:29:05;22.60;91.50
1347;DHT22;667;48.796;9.480;2022-08-19T16:31:34;22.60;91.50
1347;DHT22;667;48.796;9.480;2022-08-19T16:33:59;22.60;91.50
1347;DHT22;667;48.796;9.480;2022-08-19T16:36:25;22.60;91.50